createdAt,value
2018-04-17T00:00:22.405Z,95453.47
2018-04-17T00:03:25.726Z,95456.01
2018-04-17T00:06:29.835Z,95457.55
2018-04-17T00:09:33.148Z,95459.95
2018-04-17T00:12:37.227Z,95465.83
2018-04-17T00:15:40.571Z,95460.93
2018-04-17T00:18:45.373Z,95459.91
2018-04-17T00:21:48.700Z,95461.32
2018-04-17T00:24:52.802Z,95462.17
2018-04-17T00:27:56.893Z,95461.53
2018-04-17T00:31:00.646Z,95467.63
2018-04-17T00:34:03.975Z,95462.08
2018-04-17T00:37:08.092Z,95466.47
2018-04-17T00:40:11.396Z,95467.05
2018-04-17T00:43:14.752Z,95473.04
2018-04-17T00:46:18.829Z,95469.63
2018-04-17T00:49:22.146Z,95473.50
2018-04-17T00:52:25.477Z,95470.15
2018-04-17T00:55:28.798Z,95467.84
2018-04-17T00:58:32.227Z,95469.05
2018-04-17T01:01:35.975Z,95469.33
2018-04-17T01:04:40.062Z,95476.09
2018-04-17T01:07:43.384Z,95478.28
2018-04-17T01:10:47.466Z,95478.55
2018-04-17T01:13:50.916Z,95472.61
2018-04-17T01:16:55.022Z,95474.98
2018-04-17T01:19:59.111Z,95477.12
2018-04-17T01:23:03.165Z,95478.38
2018-04-17T01:26:06.538Z,95483.55
2018-04-17T01:29:09.840Z,95480.50
2018-04-17T01:32:13.150Z,95477.77
2018-04-17T01:35:17.236Z,95475.78
2018-04-17T01:38:20.575Z,95479.89
2018-04-17T01:41:24.641Z,95483.52
2018-04-17T01:44:28.002Z,95488.06
2018-04-17T01:47:31.361Z,95491.53
2018-04-17T01:50:34.668Z,95493.72
2018-04-17T01:53:39.698Z,95492.92
2018-04-17T01:56:43.035Z,95496.09
2018-04-17T01:59:46.332Z,95500.76
2018-04-17T02:02:49.655Z,95501.49
2018-04-17T02:05:52.971Z,95500.09
2018-04-17T02:08:56.358Z,95502.91
2018-04-17T02:11:59.676Z,95503.45
2018-04-17T02:15:02.994Z,95505.72
2018-04-17T02:18:06.310Z,95508.92
2018-04-17T02:21:09.645Z,95502.41
2018-04-17T02:24:12.989Z,95507.72
2018-04-17T02:27:17.090Z,95504.38
2018-04-17T02:30:20.406Z,95504.95
2018-04-17T02:33:23.729Z,95503.70
2018-04-17T02:36:27.171Z,95502.78
2018-04-17T02:39:30.485Z,95511.06
2018-04-17T02:42:33.803Z,95507.56
2018-04-17T02:45:37.155Z,95507.11
2018-04-17T02:48:41.069Z,95509.52
2018-04-17T02:51:44.392Z,95509.68
2018-04-17T02:54:47.736Z,95508.42
2018-04-17T02:57:51.067Z,95508.27
2018-04-17T03:00:54.381Z,95508.45
2018-04-17T03:03:57.709Z,95512.31
2018-04-17T03:07:01.806Z,95513.88
2018-04-17T03:10:05.180Z,95512.63
2018-04-17T03:13:08.515Z,95517.69
2018-04-17T03:16:11.831Z,95521.22
2018-04-17T03:19:15.909Z,95519.48
2018-04-17T03:22:19.209Z,95524.49
2018-04-17T03:25:22.522Z,95529.40
2018-04-17T03:28:25.849Z,95529.00
2018-04-17T03:31:29.919Z,95531.16
2018-04-17T03:34:33.238Z,95530.92
2018-04-17T03:37:36.596Z,95528.63
2018-04-17T03:40:39.925Z,95532.31
2018-04-17T03:43:43.244Z,95536.69
2018-04-17T03:46:46.544Z,95544.38
2018-04-17T03:49:50.635Z,95547.52
2018-04-17T03:52:54.522Z,95552.34
2018-04-17T03:55:57.855Z,95562.17
2018-04-17T03:59:01.161Z,95563.41
2018-04-17T04:02:04.523Z,95567.98
2018-04-17T04:05:07.894Z,95578.84
2018-04-17T04:08:11.366Z,95576.78
2018-04-17T04:11:15.029Z,95577.17
2018-04-17T04:14:18.346Z,95588.75
2018-04-17T04:17:39.412Z,95594.77
2018-04-17T04:21:01.341Z,95593.44
2018-04-17T04:24:23.300Z,95595.89
2018-04-17T04:27:26.627Z,95595.21
2018-04-17T04:30:29.926Z,95601.05
2018-04-17T04:33:34.081Z,95600.91
2018-04-17T04:36:37.414Z,95603.50
2018-04-17T04:39:41.758Z,95611.65
2018-04-17T04:42:45.293Z,95610.96
2018-04-17T04:45:48.622Z,95613.25
2018-04-17T04:56:02.539Z,95621.30
2018-04-17T04:59:05.873Z,95626.31
2018-04-17T05:02:09.248Z,95624.14
2018-04-17T05:05:13.331Z,95633.50
2018-04-17T05:08:16.663Z,95640.21
2018-04-17T05:11:19.999Z,95642.14
2018-04-17T05:14:23.614Z,95647.19
2018-04-17T05:17:26.959Z,95652.59
2018-04-17T05:20:30.382Z,95654.38
2018-04-17T05:23:33.742Z,95655.55
2018-04-17T05:26:37.084Z,95666.41
2018-04-17T05:29:40.459Z,95673.29
2018-04-17T05:32:45.855Z,95683.29
2018-04-17T05:35:50.038Z,95686.47
2018-04-17T05:38:53.402Z,95686.06
2018-04-17T05:41:56.750Z,95689.19
2018-04-17T05:45:00.058Z,95685.13
2018-04-17T05:48:04.212Z,95692.95
2018-04-17T05:51:07.540Z,95693.05
2018-04-17T05:54:10.806Z,95694.08
2018-04-17T05:57:14.066Z,95697.34
2018-04-17T06:00:17.331Z,95699.30
2018-04-17T06:03:20.675Z,95706.24
2018-04-17T06:06:23.954Z,95703.35
2018-04-17T06:09:27.228Z,95709.66
2018-04-17T06:12:30.503Z,95705.55
2018-04-17T06:15:33.807Z,95704.52
2018-04-17T06:18:37.143Z,95708.94
2018-04-17T06:21:40.454Z,95711.73
2018-04-17T06:24:43.809Z,95717.39
2018-04-17T06:27:47.219Z,95723.69
2018-04-17T06:30:50.567Z,95723.14
2018-04-17T06:33:54.911Z,95730.59
2018-04-17T06:36:58.199Z,95737.53
2018-04-17T06:40:01.463Z,95734.66
2018-04-17T06:43:05.577Z,95733.95
2018-04-17T06:46:08.843Z,95730.17
2018-04-17T06:49:12.151Z,95744.78
2018-04-17T06:52:15.594Z,95744.68
2018-04-17T06:55:18.898Z,95744.80
2018-04-17T06:58:22.154Z,95749.77
2018-04-17T07:01:25.576Z,95751.00
2018-04-17T07:04:28.864Z,95753.08
2018-04-17T07:07:32.166Z,95754.13
2018-04-17T07:10:35.483Z,95766.78
2018-04-17T07:13:39.514Z,95768.35
2018-04-17T07:16:42.905Z,95770.19
2018-04-17T07:19:46.170Z,95770.19
2018-04-17T07:22:50.583Z,95769.88
2018-04-17T07:25:53.843Z,95773.63
2018-04-17T07:28:57.138Z,95769.52
2018-04-17T07:32:00.436Z,95773.20
2018-04-17T07:35:03.714Z,95778.14
2018-04-17T07:38:07.776Z,95768.30
2018-04-17T07:41:11.045Z,95781.95
2018-04-17T07:44:14.323Z,95780.90
2018-04-17T07:47:31.106Z,95780.10
2018-04-17T07:50:34.390Z,95788.37
2018-04-17T07:53:37.689Z,95794.67
2018-04-17T07:56:40.951Z,95800.28
2018-04-17T07:59:44.279Z,95808.51
2018-04-17T08:02:47.528Z,95804.70
2018-04-17T08:05:51.235Z,95808.78
2018-04-17T08:08:55.270Z,95810.52
2018-04-17T08:11:58.543Z,95813.45
2018-04-17T08:15:02.611Z,95811.66
2018-04-17T08:18:05.970Z,95817.64
2018-04-17T08:21:09.239Z,95821.98
2018-04-17T08:24:12.498Z,95829.56
2018-04-17T08:27:15.862Z,95839.34
2018-04-17T08:30:20.391Z,95838.28
2018-04-17T08:33:24.415Z,95837.86
2018-04-17T08:36:27.748Z,95826.31
2018-04-17T08:39:31.270Z,95833.96
2018-04-17T08:42:34.532Z,95833.67
2018-04-17T08:45:37.903Z,95834.23
2018-04-17T08:48:41.295Z,95837.41
2018-04-17T08:51:44.643Z,95845.70
2018-04-17T08:54:47.942Z,95849.11
2018-04-17T08:57:51.210Z,95850.12
2018-04-17T09:00:54.499Z,95856.59
2018-04-17T09:03:57.788Z,95852.53
2018-04-17T09:07:01.831Z,95854.70
2018-04-17T09:10:05.100Z,95854.87
2018-04-17T09:13:08.414Z,95855.39
2018-04-17T09:16:11.752Z,95861.09
2018-04-17T09:19:15.835Z,95855.98
2018-04-17T09:22:19.146Z,95862.56
2018-04-17T09:25:23.185Z,95865.16
2018-04-17T09:28:26.444Z,95863.48
2018-04-17T09:31:29.717Z,95868.42
2018-04-17T09:34:33.085Z,95870.21
2018-04-17T09:37:36.296Z,95876.30
2018-04-17T09:40:40.327Z,95879.70
2018-04-17T09:43:44.401Z,95879.75
2018-04-17T09:46:47.696Z,95883.16
2018-04-17T09:49:50.975Z,95885.95
2018-04-17T09:52:54.303Z,95874.86
2018-04-17T09:55:57.605Z,95873.67
2018-04-17T09:59:00.868Z,95876.03
2018-04-17T10:02:04.136Z,95878.76
2018-04-17T10:05:07.446Z,95883.10
2018-04-17T10:08:10.704Z,95885.92
2018-04-17T10:11:14.994Z,95883.58
2018-04-17T10:14:19.008Z,95874.22
2018-04-17T10:17:22.341Z,95876.91
2018-04-17T10:20:25.619Z,95874.08
2018-04-17T10:23:29.639Z,95870.67
2018-04-17T10:26:33.847Z,95865.01
2018-04-17T10:29:37.873Z,95860.20
2018-04-17T10:32:42.125Z,95870.39
2018-04-17T10:35:45.414Z,95864.80
2018-04-17T10:38:48.685Z,95866.47
2018-04-17T10:41:52.706Z,95858.44
2018-04-17T10:44:56.005Z,95859.00
2018-04-17T10:47:59.295Z,95857.20
2018-04-17T10:51:02.895Z,95853.50
2018-04-17T10:54:07.633Z,95857.48
2018-04-17T10:57:11.658Z,95852.88
2018-04-17T11:00:14.934Z,95857.61
2018-04-17T11:03:19.009Z,95854.97
2018-04-17T11:06:22.236Z,95854.94
2018-04-17T11:09:26.267Z,95857.08
2018-04-17T11:12:30.314Z,95864.02
2018-04-17T11:15:33.720Z,95862.77
2018-04-17T11:18:36.982Z,95860.53
2018-04-17T11:21:40.270Z,95851.69
2018-04-17T11:24:44.291Z,95872.41
2018-04-17T11:27:47.718Z,95872.09
2018-04-17T11:30:50.977Z,95868.78
2018-04-17T11:33:55.302Z,95871.42
2018-04-17T11:36:59.345Z,95870.15
2018-04-17T11:40:02.602Z,95870.63
2018-04-17T11:43:05.954Z,95868.92
2018-04-17T11:46:09.237Z,95872.58
2018-04-17T11:49:12.543Z,95869.48
2018-04-17T11:52:15.831Z,95868.41
2018-04-17T11:55:19.127Z,95877.80
2018-04-17T11:58:22.609Z,95882.83
2018-04-17T12:01:26.654Z,95881.27
2018-04-17T12:04:29.917Z,95885.11
2018-04-17T12:07:34.090Z,95889.45
2018-04-17T12:10:37.570Z,95885.03
2018-04-17T12:13:40.825Z,95879.77
2018-04-17T12:16:44.094Z,95884.62
2018-04-17T12:19:47.347Z,95886.02
2018-04-17T12:22:50.705Z,95884.54
2018-04-17T12:25:54.010Z,95896.52
2018-04-17T12:28:57.297Z,95883.59
2018-04-17T12:32:00.587Z,95890.02
2018-04-17T12:35:03.834Z,95892.64
2018-04-17T12:38:07.521Z,95885.61
2018-04-17T12:41:14.041Z,95885.28
2018-04-17T12:44:17.358Z,95886.41
2018-04-17T12:47:20.768Z,95881.98
2018-04-17T12:50:24.170Z,95880.25
2018-04-17T12:53:27.462Z,95881.31
2018-04-17T12:56:30.754Z,95872.17
2018-04-17T12:59:34.106Z,95866.77
2018-04-17T13:02:38.171Z,95876.08
2018-04-17T13:05:41.436Z,95869.73
2018-04-17T13:08:44.828Z,95866.26
2018-04-17T13:11:48.229Z,95865.70
2018-04-17T13:14:51.553Z,95866.14
2018-04-17T13:17:54.838Z,95860.44
2018-04-17T13:20:58.114Z,95856.61
2018-04-17T13:24:02.158Z,95859.53
2018-04-17T13:27:05.506Z,95852.82
2018-04-17T13:30:08.766Z,95853.95
2018-04-17T13:33:12.887Z,95861.66
2018-04-17T13:36:16.155Z,95854.98
2018-04-17T13:39:19.422Z,95852.46
2018-04-17T13:42:22.766Z,95852.51
2018-04-17T13:45:26.014Z,95848.06
2018-04-17T13:48:29.285Z,95845.30
2018-04-17T13:51:32.575Z,95845.14
2018-04-17T13:54:35.863Z,95847.52
2018-04-17T13:57:39.200Z,95846.81
2018-04-17T14:00:42.603Z,95851.52
2018-04-17T14:03:46.624Z,95844.39
2018-04-17T14:06:50.836Z,95845.48
2018-04-17T14:09:54.188Z,95851.44
2018-04-17T14:12:57.448Z,95848.15
2018-04-17T14:16:02.198Z,95847.62
2018-04-17T14:19:06.176Z,95845.27
2018-04-17T14:22:10.296Z,95848.80
2018-04-17T14:25:14.378Z,95845.24
2018-04-17T14:28:17.637Z,95853.09
2018-04-17T14:31:21.662Z,95849.70
2018-04-17T14:34:24.949Z,95851.47
2018-04-17T14:37:28.241Z,95853.23
2018-04-17T14:40:32.367Z,95861.27
2018-04-17T14:43:35.769Z,95862.54
2018-04-17T14:46:39.059Z,95860.98
2018-04-17T14:49:43.135Z,95862.84
2018-04-17T14:52:46.370Z,95862.70
2018-04-17T14:55:50.563Z,95862.70
2018-04-17T14:58:53.863Z,95863.42
2018-04-17T15:01:57.585Z,95864.80
2018-04-17T15:05:00.867Z,95864.94
2018-04-17T15:08:04.417Z,95858.61
2018-04-17T15:11:07.774Z,95860.05
2018-04-17T15:14:11.061Z,95867.22
2018-04-17T15:17:14.320Z,95864.14
2018-04-17T15:20:17.676Z,95861.53
2018-04-17T15:23:20.959Z,95862.08
2018-04-17T15:26:24.214Z,95869.73
2018-04-17T15:29:28.724Z,95861.30
2018-04-17T15:32:32.108Z,95859.73
2018-04-17T15:35:35.523Z,95868.52
2018-04-17T15:38:39.605Z,95867.02
2018-04-17T15:41:42.893Z,95865.96
2018-04-17T15:44:46.159Z,95877.64
2018-04-17T15:47:49.468Z,95883.20
2018-04-17T15:51:12.245Z,95875.48
2018-04-17T15:54:15.507Z,95875.50
2018-04-17T15:57:19.561Z,95882.98
2018-04-17T16:00:22.838Z,95881.41
2018-04-17T16:03:26.214Z,95877.30
2018-04-17T16:06:29.459Z,95880.19
2018-04-17T16:09:32.770Z,95878.01
2018-04-17T16:12:36.045Z,95892.23
2018-04-17T16:15:39.314Z,95885.61
2018-04-17T16:18:43.268Z,95887.50
2018-04-17T16:21:46.538Z,95891.91
2018-04-17T16:24:50.706Z,95893.02
2018-04-17T16:27:54.030Z,95892.28
2018-04-17T16:30:58.110Z,95889.90
2018-04-17T16:34:01.696Z,95893.33
2018-04-17T16:37:05.101Z,95901.13
2018-04-17T16:40:08.471Z,95901.15
2018-04-17T16:43:11.759Z,95902.84
2018-04-17T16:46:15.882Z,95905.02
2018-04-17T16:49:19.203Z,95907.70
2018-04-17T16:52:22.510Z,95902.59
2018-04-17T16:55:25.820Z,95911.23
2018-04-17T16:58:29.153Z,95917.90
2018-04-17T17:01:32.750Z,95913.72
2018-04-17T17:04:36.142Z,95918.45
2018-04-17T17:07:39.445Z,95925.53
2018-04-17T17:10:42.869Z,95927.98
2018-04-17T17:13:47.162Z,95934.20
2018-04-17T17:16:50.496Z,95937.34
2018-04-17T17:19:53.828Z,95934.84
2018-04-17T17:22:57.295Z,95944.30
2018-04-17T17:26:00.627Z,95952.55
2018-04-17T17:29:04.146Z,95952.38
2018-04-17T17:32:07.516Z,95962.49
2018-04-17T17:35:10.901Z,95961.42
2018-04-17T17:38:14.287Z,95963.09
2018-04-17T17:41:17.616Z,95968.19
2018-04-17T17:44:20.927Z,95973.92
2018-04-17T17:47:24.220Z,95984.61
2018-04-17T17:50:27.756Z,95982.30
2018-04-17T17:53:31.611Z,95987.01
2018-04-17T17:56:34.945Z,95989.72
2018-04-17T17:59:38.261Z,95994.94
2018-04-17T18:02:41.560Z,96001.77
2018-04-17T18:05:44.848Z,96007.16
2018-04-17T18:12:34.260Z,96009.93
2018-04-17T18:15:37.546Z,96007.53
2018-04-17T18:18:40.859Z,96021.75
2018-04-17T18:21:44.166Z,96023.27
2018-04-17T18:24:47.465Z,96026.93
2018-04-17T18:27:51.847Z,96030.84
2018-04-17T18:30:55.878Z,96035.41
2018-04-17T18:33:59.179Z,96043.84
2018-04-17T18:37:02.480Z,96051.38
2018-04-17T18:40:06.556Z,96053.70
2018-04-17T18:43:09.780Z,96057.88
2018-04-17T18:46:13.824Z,96064.29
2018-04-17T18:49:17.106Z,96071.33
2018-04-17T18:52:21.140Z,96067.77
2018-04-17T18:55:24.406Z,96071.05
2018-04-17T18:58:27.711Z,96069.58
2018-04-17T19:01:31.729Z,96085.73
2018-04-17T19:04:35.025Z,96090.17
2018-04-17T19:07:38.330Z,96090.01
2018-04-17T19:10:41.614Z,96098.29
2018-04-17T19:13:45.424Z,96096.36
2018-04-17T19:16:49.446Z,96104.16
2018-04-17T19:19:52.739Z,96105.92
2018-04-17T19:22:56.027Z,96110.58
2018-04-17T19:26:00.060Z,96107.09
2018-04-17T19:29:03.876Z,96112.91
2018-04-17T19:32:07.153Z,96118.03
2018-04-17T19:35:12.010Z,96122.11
2018-04-17T19:38:18.655Z,96129.03
2018-04-17T19:41:21.973Z,96122.85
2018-04-17T19:44:25.996Z,96124.55
2018-04-17T19:47:29.351Z,96128.48
2018-04-17T19:50:32.718Z,96132.23
2018-04-17T19:53:37.155Z,96139.03
2018-04-17T19:56:40.549Z,96136.05
2018-04-17T19:59:44.049Z,96138.18
2018-04-17T20:02:47.431Z,96142.80
2018-04-17T20:05:50.750Z,96142.70
2018-04-17T20:08:54.051Z,96146.53
2018-04-17T20:11:57.375Z,96156.91
2018-04-17T20:15:00.642Z,96148.69
2018-04-17T20:18:03.900Z,96150.47
2018-04-17T20:21:07.181Z,96154.19
2018-04-17T20:24:10.458Z,96159.81
2018-04-17T20:27:13.711Z,96160.50
2018-04-17T20:30:17.746Z,96158.20
2018-04-17T20:33:21.012Z,96166.97
2018-04-17T20:36:25.041Z,96164.27
2018-04-17T20:39:29.073Z,96163.88
2018-04-17T20:42:32.416Z,96167.36
2018-04-17T20:45:35.740Z,96165.27
2018-04-17T20:48:38.990Z,96165.73
2018-04-17T20:51:42.250Z,96168.30
2018-04-17T20:54:45.525Z,96172.80
2018-04-17T20:57:48.786Z,96171.19
2018-04-17T21:00:53.087Z,96164.42
2018-04-17T21:03:56.388Z,96164.02
2018-04-17T21:06:59.657Z,96174.20
2018-04-17T21:10:03.692Z,96166.67
2018-04-17T21:13:06.985Z,96173.69
2018-04-17T21:16:10.266Z,96180.46
2018-04-17T21:19:14.318Z,96180.09
2018-04-17T21:22:17.596Z,96177.52
2018-04-17T21:25:21.273Z,96181.78
2018-04-17T21:28:25.368Z,96180.72
2018-04-17T21:31:28.801Z,96186.55
2018-04-17T21:34:32.073Z,96183.19
2018-04-17T21:37:35.580Z,96182.11
2018-04-17T21:40:38.835Z,96189.20
2018-04-17T21:43:42.275Z,96192.70
2018-04-17T21:46:45.546Z,96198.58
2018-04-17T21:49:48.787Z,96201.16
2018-04-17T21:52:52.814Z,96200.73
2018-04-17T21:55:56.847Z,96206.94
2018-04-17T21:59:00.112Z,96202.64
2018-04-17T22:02:04.165Z,96208.86
2018-04-17T22:05:07.427Z,96213.81
2018-04-17T22:08:10.676Z,96206.11
2018-04-17T22:11:13.937Z,96217.41
2018-04-17T22:14:17.991Z,96216.55
2018-04-17T22:17:21.242Z,96218.63
2018-04-17T22:20:25.289Z,96224.84
2018-04-17T22:23:28.573Z,96222.97
2018-04-17T22:26:32.773Z,96221.50
2018-04-17T22:29:36.809Z,96226.98
2018-04-17T22:32:40.111Z,96229.24
2018-04-17T22:35:43.371Z,96230.49
2018-04-17T22:38:46.637Z,96231.14
2018-04-17T22:41:49.901Z,96232.64
2018-04-17T22:44:53.153Z,96233.62
2018-04-17T22:47:56.418Z,96236.93
2018-04-17T22:51:00.429Z,96233.17
2018-04-17T22:54:03.862Z,96246.28
2018-04-17T22:57:07.923Z,96243.55
2018-04-17T23:00:11.174Z,96253.56
2018-04-17T23:03:14.430Z,96258.09
2018-04-17T23:06:17.693Z,96254.52
2018-04-17T23:09:21.717Z,96252.39
2018-04-17T23:12:25.743Z,96256.88
2018-04-17T23:15:29.002Z,96254.09
2018-04-17T23:18:32.252Z,96252.36
2018-04-17T23:21:35.500Z,96256.48
2018-04-17T23:24:38.774Z,96255.30
2018-04-17T23:27:42.037Z,96259.56
2018-04-17T23:30:45.278Z,96261.39
2018-04-17T23:33:48.546Z,96257.87
2018-04-17T23:36:51.793Z,96258.34
2018-04-17T23:39:55.818Z,96258.98
2018-04-17T23:42:59.840Z,96259.29
2018-04-17T23:46:03.994Z,96259.06
2018-04-17T23:49:07.235Z,96261.34
2018-04-17T23:52:11.281Z,96264.13
2018-04-17T23:55:15.384Z,96259.45
2018-04-17T23:58:19.410Z,96259.05
